Time;durP1;ratioP1;P1;durP2;ratioP2;P2;SDS_P1;SDS_P2;PMS_P1;PMS_P2;Temp;Humidity;BMP_temperature;BMP_pressure;BME280_temperature;BME280_humidity;BME280_pressure;Samples;Min_cycle;Max_cycle;Signal;HPM_P1;HPM_P2
2022/01/28 00:00:04;;;;;;;;;;;;;;;3.49;100.00;102855.34;5035358;28;19963;-86
2022/01/28 00:05:19;;;;;;;;;;;;;;;3.39;100.00;102873.13;5054412;28;20323;-87
2022/01/28 00:07:45;;;;;;;;;;;;;;;3.33;100.00;102882.50;5036856;28;20440;-87
2022/01/28 00:10:10;;;;;;;;;;;;;;;3.31;100.00;102884.44;5019277;28;20016;-87
2022/01/28 00:12:43;;;;;;;;;;;;;;;3.28;100.00;102884.69;5036152;28;20268;-87
2022/01/28 00:15:19;;;;;;;;;;;;;;;3.22;100.00;102887.84;5053948;28;20280;-87
2022/01/28 00:18:16;;;;;;;;;;;;;;;3.19;100.00;102897.94;5036440;28;19973;-87
2022/01/28 00:39:10;;;;;;;;;;;;;;;2.94;100.00;102919.44;5053811;28;20361;-87
2022/01/28 00:41:38;;;;;;;;;;;;;;;2.95;100.00;102907.75;5019167;28;19916;-88
2022/01/28 00:44:03;;;;;;;;;;;;;;;2.95;100.00;102902.38;5018718;28;19951;-87
2022/01/28 00:46:34;;;;;;;;;;;;;;;2.95;100.00;102907.75;5035765;28;19944;-87
2022/01/28 00:49:00;;;;;;;;;;;;;;;3.03;100.00;102898.25;5019188;28;19913;-87
2022/01/28 00:51:25;;;;;;;;;;;;;;;3.08;100.00;102902.28;5035412;28;19958;-87
2022/01/28 00:53:50;;;;;;;;;;;;;;;3.12;100.00;102906.47;5018931;28;19913;-87
2022/01/28 00:56:16;;;;;;;;;;;;;;;3.14;100.00;102906.34;5035401;28;19913;-87
2022/01/28 00:58:41;;;;;;;;;;;;;;;3.19;100.00;102908.66;5035505;28;19967;-87
2022/01/28 01:01:06;;;;;;;;;;;;;;;3.19;100.00;102912.22;5034820;28;20291;-88
2022/01/28 01:03:32;;;;;;;;;;;;;;;3.20;100.00;102905.03;5035260;28;20430;-87
2022/01/28 01:05:57;;;;;;;;;;;;;;;3.17;100.00;102898.06;5034941;28;20373;-87
2022/01/28 01:08:23;;;;;;;;;;;;;;;3.22;100.00;102916.47;5053136;28;20337;-87
2022/01/28 01:10:51;;;;;;;;;;;;;;;3.25;100.00;102917.13;5052781;28;19917;-87
2022/01/28 01:13:16;;;;;;;;;;;;;;;3.26;100.00;102913.47;5018782;28;19927;-87
2022/01/28 01:15:49;;;;;;;;;;;;;;;3.27;100.00;102922.38;5035070;28;19909;-87
2022/01/28 01:18:29;;;;;;;;;;;;;;;3.28;100.00;102926.78;5034596;28;19912;-87
2022/01/28 01:21:02;;;;;;;;;;;;;;;3.30;100.00;102925.66;5052853;28;19912;-87
2022/01/28 01:23:31;;;;;;;;;;;;;;;3.32;100.00;102926.44;5036246;28;19935;-87
2022/01/28 01:26:07;;;;;;;;;;;;;;;3.30;100.00;102919.47;5034984;28;19980;-87
2022/01/28 01:28:36;;;;;;;;;;;;;;;3.26;100.00;102924.22;5051500;28;19920;-87
2022/01/28 01:31:03;;;;;;;;;;;;;;;3.24;100.00;102926.13;5034732;28;20369;-87
2022/01/28 01:33:33;;;;;;;;;;;;;;;3.18;100.00;102931.97;5034797;28;20372;-87
2022/01/28 01:36:02;;;;;;;;;;;;;;;3.12;100.00;102933.28;5034407;28;19909;-87
2022/01/28 01:38:34;;;;;;;;;;;;;;;3.05;100.00;102934.72;5034732;28;19909;-87
2022/01/28 01:41:02;;;;;;;;;;;;;;;3.00;100.00;102926.16;5052599;28;19916;-87
2022/01/28 01:46:32;;;;;;;;;;;;;;;2.95;100.00;102950.66;5052852;28;19920;-87
2022/01/28 01:54:26;;;;;;;;;;;;;;;2.89;100.00;102951.06;5052398;28;19983;-87
2022/01/28 01:56:53;;;;;;;;;;;;;;;2.94;100.00;102964.16;5034720;28;20029;-87
2022/01/28 01:59:18;;;;;;;;;;;;;;;2.95;100.00;102966.75;5034748;28;20399;-87
2022/01/28 02:01:46;;;;;;;;;;;;;;;2.98;100.00;102985.28;5054313;28;19948;-87
2022/01/28 02:04:11;;;;;;;;;;;;;;;3.02;100.00;102988.59;5056446;28;20047;-87
2022/01/28 02:06:40;;;;;;;;;;;;;;;3.06;100.00;102979.34;5056427;28;20468;-87
2022/01/28 02:09:06;;;;;;;;;;;;;;;3.09;100.00;102976.44;5038955;28;20392;-87
2022/01/28 02:11:31;;;;;;;;;;;;;;;3.09;100.00;102992.53;5021593;28;20425;-87
2022/01/28 02:13:57;;;;;;;;;;;;;;;3.10;100.00;102994.25;5038460;28;20385;-87
2022/01/28 02:16:22;;;;;;;;;;;;;;;3.09;100.00;102992.53;5056226;28;19908;-87
2022/01/28 02:18:47;;;;;;;;;;;;;;;3.10;100.00;103001.41;5054954;28;19916;-86
2022/01/28 02:21:15;;;;;;;;;;;;;;;3.10;100.00;102996.94;5055903;28;19912;-87
2022/01/28 02:23:43;;;;;;;;;;;;;;;3.13;100.00;103004.75;5022065;28;19952;-86
2022/01/28 02:26:13;;;;;;;;;;;;;;;3.15;100.00;103007.31;5038089;28;19923;-87
2022/01/28 02:28:41;;;;;;;;;;;;;;;3.14;100.00;102998.41;5055477;28;19916;-86
2022/01/28 02:31:06;;;;;;;;;;;;;;;3.16;100.00;103001.00;5055797;28;19963;-86
2022/01/28 02:33:38;;;;;;;;;;;;;;;3.15;100.00;103004.63;5055900;28;19908;-86
2022/01/28 02:36:06;;;;;;;;;;;;;;;3.14;100.00;103006.47;5055872;28;19918;-87
2022/01/28 02:38:32;;;;;;;;;;;;;;;3.11;100.00;103001.31;5055722;28;19982;-86
2022/01/28 02:41:00;;;;;;;;;;;;;;;3.09;100.00;103005.09;5055758;28;19962;-86
2022/01/28 02:46:04;;;;;;;;;;;;;;;3.04;100.00;103004.56;5055599;28;19962;-87
2022/01/28 02:48:31;;;;;;;;;;;;;;;3.02;100.00;103006.50;5055609;28;20319;-87
2022/01/28 02:53:30;;;;;;;;;;;;;;;2.94;100.00;103010.59;5055765;28;19912;-86
2022/01/28 02:56:02;;;;;;;;;;;;;;;2.92;100.00;103017.03;5054270;28;19920;-86
2022/01/28 02:58:28;;;;;;;;;;;;;;;2.91;100.00;103021.56;5054221;28;19942;-86
2022/01/28 03:00:54;;;;;;;;;;;;;;;2.89;100.00;103020.78;5037314;28;19917;-87
2022/01/28 03:03:22;;;;;;;;;;;;;;;2.90;100.00;103027.03;5036861;28;19947;-86
2022/01/28 03:05:47;;;;;;;;;;;;;;;2.94;100.00;103026.69;5037455;28;20295;-86
2022/01/28 03:08:17;;;;;;;;;;;;;;;2.91;100.00;103029.59;5054304;28;19909;-86
2022/01/28 03:10:53;;;;;;;;;;;;;;;2.91;100.00;103034.97;5020867;28;19955;-86
2022/01/28 03:15:54;;;;;;;;;;;;;;;2.91;100.00;103040.34;5055471;28;19908;-87
2022/01/28 03:18:25;;;;;;;;;;;;;;;2.92;100.00;103036.69;5037567;28;19920;-87
2022/01/28 03:23:18;;;;;;;;;;;;;;;3.02;100.00;103038.69;5037603;28;19916;-87
2022/01/28 03:25:46;;;;;;;;;;;;;;;3.05;100.00;103043.84;5020870;28;19920;-87
2022/01/28 03:28:12;;;;;;;;;;;;;;;3.09;100.00;103048.84;5054906;28;19915;-87
2022/01/28 03:30:37;;;;;;;;;;;;;;;3.14;100.00;103041.34;5036910;28;19958;-87
2022/01/28 03:33:03;;;;;;;;;;;;;;;3.18;100.00;103041.13;5054680;28;19916;-87
2022/01/28 03:35:30;;;;;;;;;;;;;;;3.23;100.00;103045.16;5036806;28;19916;-87
2022/01/28 03:38:02;;;;;;;;;;;;;;;3.26;100.00;103046.75;5054236;28;20023;-87
2022/01/28 03:40:33;;;;;;;;;;;;;;;3.31;100.00;103040.09;5054711;28;19909;-87
2022/01/28 03:42:59;;;;;;;;;;;;;;;3.36;100.00;103045.09;5054564;28;19916;-87
2022/01/28 03:45:24;;;;;;;;;;;;;;;3.39;100.00;103039.50;5037125;28;19921;-87
2022/01/28 03:47:50;;;;;;;;;;;;;;;3.36;100.00;103046.94;5036737;28;19913;-87
2022/01/28 03:50:15;;;;;;;;;;;;;;;3.30;100.00;103043.72;5036613;28;19917;-86
2022/01/28 03:52:40;;;;;;;;;;;;;;;3.23;100.00;103045.16;5054467;28;19909;-86
2022/01/28 03:55:06;;;;;;;;;;;;;;;3.15;100.00;103043.03;5053934;28;20326;-86
2022/01/28 03:57:35;;;;;;;;;;;;;;;3.11;100.00;103054.94;5036420;28;20448;-87
2022/01/28 04:00:01;;;;;;;;;;;;;;;3.05;100.00;103063.44;5054175;28;19931;-86
2022/01/28 04:02:32;;;;;;;;;;;;;;;3.03;100.00;103061.84;5036404;28;19909;-86
2022/01/28 04:12:51;;;;;;;;;;;;;;;2.93;100.00;103070.56;5038906;28;19982;-87
2022/01/28 04:17:49;;;;;;;;;;;;;;;2.89;100.00;103063.69;5054305;28;19913;-87
2022/01/28 04:20:14;;;;;;;;;;;;;;;2.86;100.00;103063.91;5036278;28;20046;-86
2022/01/28 04:22:42;;;;;;;;;;;;;;;2.86;100.00;103080.00;5036004;28;19999;-87
2022/01/28 04:25:07;;;;;;;;;;;;;;;2.91;100.00;103068.94;5053003;28;19909;-87
2022/01/28 04:27:33;;;;;;;;;;;;;;;2.98;100.00;103071.09;5035867;28;19916;-87
2022/01/28 04:29:58;;;;;;;;;;;;;;;3.04;100.00;103074.28;5053586;28;19921;-87
2022/01/28 04:32:26;;;;;;;;;;;;;;;3.06;100.00;103078.59;5053532;28;20384;-87
2022/01/28 04:34:53;;;;;;;;;;;;;;;3.08;100.00;103079.31;5019461;28;19919;-87
2022/01/28 04:45:01;;;;;;;;;;;;;;;2.97;100.00;103090.84;5053432;28;20264;-86
2022/01/28 04:50:39;;;;;;;;;;;;;;;2.96;100.00;103096.31;5018120;28;19921;-86
2022/01/28 04:58:36;;;;;;;;;;;;;;;2.79;100.00;103101.06;5035884;28;19913;-86
2022/01/28 05:06:45;;;;;;;;;;;;;;;2.54;100.00;103099.25;5032981;28;19909;-86
2022/01/28 05:27:49;;;;;;;;;;;;;;;2.14;100.00;103131.47;5032747;28;19909;-87
2022/01/28 05:30:15;;;;;;;;;;;;;;;2.12;100.00;103140.56;5015206;28;19917;-87
2022/01/28 05:32:43;;;;;;;;;;;;;;;2.07;100.00;103141.72;5032732;28;19936;-87
2022/01/28 05:35:08;;;;;;;;;;;;;;;2.04;100.00;103141.94;5031435;28;20268;-87
2022/01/28 05:37:36;;;;;;;;;;;;;;;2.01;100.00;103135.91;5032717;28;19917;-86
2022/01/28 05:40:02;;;;;;;;;;;;;;;1.99;100.00;103141.38;5014759;28;20028;-87
2022/01/28 05:42:27;;;;;;;;;;;;;;;1.96;100.00;103144.25;5031421;28;19960;-86
2022/01/28 05:44:53;;;;;;;;;;;;;;;1.95;100.00;103153.25;5032688;28;19948;-86
2022/01/28 05:47:18;;;;;;;;;;;;;;;1.92;100.00;103154.31;5014928;28;20296;-86
2022/01/28 05:49:44;;;;;;;;;;;;;;;1.87;100.00;103159.09;5032587;28;19917;-86
2022/01/28 05:52:09;;;;;;;;;;;;;;;1.83;100.00;103154.94;5031291;28;20377;-86
2022/01/28 05:54:35;;;;;;;;;;;;;;;1.83;100.00;103154.94;5015183;28;19959;-87
2022/01/28 05:57:00;;;;;;;;;;;;;;;1.82;100.00;103152.34;5032184;28;19912;-86
2022/01/28 05:59:26;;;;;;;;;;;;;;;1.80;100.00;103160.50;5031064;28;20388;-86
2022/01/28 06:01:51;;;;;;;;;;;;;;;1.79;100.00;103158.75;5049934;28;19920;-86
2022/01/28 06:04:16;;;;;;;;;;;;;;;1.76;100.00;103158.97;5034624;28;19999;-86
2022/01/28 06:06:42;;;;;;;;;;;;;;;1.73;100.00;103167.19;5034474;28;19923;-87
2022/01/28 06:09:07;;;;;;;;;;;;;;;1.70;100.00;103181.63;5017803;28;19913;-87
2022/01/28 06:11:33;;;;;;;;;;;;;;;1.69;100.00;103195.97;5018086;28;19912;-89
2022/01/28 06:13:58;;;;;;;;;;;;;;;1.69;100.00;103193.28;5052658;28;19909;-91
2022/01/28 06:16:23;;;;;;;;;;;;;;;1.71;100.00;103193.19;5017939;28;19948;-90
2022/01/28 06:18:49;;;;;;;;;;;;;;;1.73;100.00;103200.16;5051969;28;19909;-90
2022/01/28 06:21:14;;;;;;;;;;;;;;;1.70;100.00;103194.16;5053065;28;19908;-90
2022/01/28 06:23:40;;;;;;;;;;;;;;;1.66;100.00;103195.31;5035488;28;20011;-91
2022/01/28 06:26:12;;;;;;;;;;;;;;;1.58;100.00;103203.84;5019357;28;19963;-94
2022/01/28 06:28:41;;;;;;;;;;;;;;;1.56;100.00;103201.25;5035102;28;20277;-95
2022/01/28 06:31:06;;;;;;;;;;;;;;;1.54;100.00;103213.88;5019040;28;19921;-90
2022/01/28 06:33:32;;;;;;;;;;;;;;;1.52;100.00;103209.56;5017434;28;19916;-88
2022/01/28 06:35:57;;;;;;;;;;;;;;;1.47;100.00;103215.22;5017819;28;19912;-89
2022/01/28 06:38:25;;;;;;;;;;;;;;;1.45;100.00;103229.63;5017983;28;20363;-89
2022/01/28 06:40:51;;;;;;;;;;;;;;;1.41;100.00;103229.00;5034274;28;19963;-89
2022/01/28 06:43:19;;;;;;;;;;;;;;;1.39;100.00;103228.25;5050856;28;19908;-90
2022/01/28 06:46:05;;;;;;;;;;;;;;;1.38;100.00;103234.53;5035162;28;19908;-94
2022/01/28 06:48:30;;;;;;;;;;;;;;;1.40;100.00;103230.81;5038391;28;19908;-90
2022/01/28 06:50:56;;;;;;;;;;;;;;;1.37;100.00;103231.00;5021160;28;19917;-90
2022/01/28 06:53:21;;;;;;;;;;;;;;;1.37;100.00;103244.38;5021535;28;19921;-90
2022/01/28 06:55:46;;;;;;;;;;;;;;;1.37;100.00;103243.50;5038033;28;20287;-91
2022/01/28 06:58:12;;;;;;;;;;;;;;;1.40;100.00;103252.22;5022252;28;19916;-90
2022/01/28 07:00:39;;;;;;;;;;;;;;;1.39;100.00;103255.00;5021097;28;20372;-87
2022/01/28 07:03:05;;;;;;;;;;;;;;;1.36;100.00;103269.41;5037926;28;20006;-90
2022/01/28 07:05:31;;;;;;;;;;;;;;;1.30;100.00;103268.91;5037475;28;19916;-90
2022/01/28 07:07:59;;;;;;;;;;;;;;;1.24;100.00;103275.53;5037103;28;20280;-91
2022/01/28 07:10:25;;;;;;;;;;;;;;;1.17;100.00;103272.34;5038658;28;19913;-91
2022/01/28 07:12:53;;;;;;;;;;;;;;;1.13;100.00;103286.84;5021555;28;19958;-91
2022/01/28 07:15:18;;;;;;;;;;;;;;;1.10;100.00;103292.41;5022476;28;20420;-90
2022/01/28 07:17:44;;;;;;;;;;;;;;;1.05;100.00;103294.50;5038137;28;20001;-91
2022/01/28 07:20:10;;;;;;;;;;;;;;;1.05;100.00;103291.84;5021332;28;20261;-91
2022/01/28 07:22:35;;;;;;;;;;;;;;;1.08;100.00;103291.66;5038086;28;19908;-91
2022/01/28 07:25:01;;;;;;;;;;;;;;;1.09;100.00;103292.50;5037233;28;19962;-91
2022/01/28 07:27:26;;;;;;;;;;;;;;;1.03;100.00;103294.59;5037303;28;19908;-90
2022/01/28 07:29:54;;;;;;;;;;;;;;;1.02;100.00;103297.38;5037334;28;20305;-90
2022/01/28 07:32:23;;;;;;;;;;;;;;;1.07;100.00;103302.44;5055219;28;20007;-90
2022/01/28 07:34:48;;;;;;;;;;;;;;;1.07;100.00;103297.09;5037802;28;19908;-91
2022/01/28 07:37:14;;;;;;;;;;;;;;;1.05;100.00;103307.88;5021324;28;20384;-91
2022/01/28 07:39:39;;;;;;;;;;;;;;;1.02;100.00;103318.75;5021083;28;19967;-90
2022/01/28 07:42:05;;;;;;;;;;;;;;;1.02;100.00;103324.09;5020191;28;20284;-90
2022/01/28 07:44:31;;;;;;;;;;;;;;;1.05;100.00;103322.09;5020914;28;20357;-90
2022/01/28 07:46:57;;;;;;;;;;;;;;;1.10;100.00;103313.78;5020290;28;19962;-90
2022/01/28 07:49:22;;;;;;;;;;;;;;;1.13;100.00;103318.09;5036707;28;19913;-90
2022/01/28 07:51:48;;;;;;;;;;;;;;;1.10;100.00;103310.25;5036585;28;19916;-90
2022/01/28 07:54:14;;;;;;;;;;;;;;;1.07;100.00;103319.31;5036777;28;19962;-91
2022/01/28 07:56:42;;;;;;;;;;;;;;;1.02;100.00;103327.63;5019845;28;19913;-90
2022/01/28 07:59:08;;;;;;;;;;;;;;;0.99;100.00;103322.47;5019145;28;19917;-91
2022/01/28 08:01:42;;;;;;;;;;;;;;;0.98;100.00;103326.06;5033448;28;20316;-90
2022/01/28 08:04:10;;;;;;;;;;;;;;;1.02;100.00;103324.09;5032721;28;19948;-90
2022/01/28 08:06:36;;;;;;;;;;;;;;;1.07;100.00;103332.69;5033980;28;19960;-90
2022/01/28 08:09:04;;;;;;;;;;;;;;;1.09;100.00;103337.94;5033389;28;19948;-91
2022/01/28 08:11:32;;;;;;;;;;;;;;;1.11;100.00;103338.72;5034618;28;19917;-90
2022/01/28 08:13:58;;;;;;;;;;;;;;;1.10;100.00;103337.00;5017091;28;20317;-90
2022/01/28 08:16:23;;;;;;;;;;;;;;;1.12;100.00;103346.66;5033369;28;19936;-90
2022/01/28 08:18:49;;;;;;;;;;;;;;;1.16;100.00;103360.69;5033026;28;19909;-91
2022/01/28 08:21:15;;;;;;;;;;;;;;;1.17;100.00;103354.41;5033494;28;20004;-90
2022/01/28 08:23:40;;;;;;;;;;;;;;;1.21;100.00;103353.25;5031763;28;19913;-90
2022/01/28 08:26:09;;;;;;;;;;;;;;;1.23;100.00;103365.59;5033246;28;19924;-90
2022/01/28 08:28:35;;;;;;;;;;;;;;;1.27;100.00;103378.78;5033382;28;19913;-90
2022/01/28 08:31:03;;;;;;;;;;;;;;;1.30;100.00;103379.47;5033072;28;19924;-90
2022/01/28 08:33:29;;;;;;;;;;;;;;;1.43;100.00;103376.03;5033515;28;19952;-90
2022/01/28 08:35:55;;;;;;;;;;;;;;;1.41;100.00;103368.09;5037209;28;19916;-90
2022/01/28 08:38:30;;;;;;;;;;;;;;;1.44;100.00;103375.09;5054051;28;20335;-91
2022/01/28 08:40:57;;;;;;;;;;;;;;;1.48;100.00;103385.50;5017510;28;19913;-90
2022/01/28 08:43:28;;;;;;;;;;;;;;;1.52;100.00;103386.16;5032943;28;20296;-91
2022/01/28 08:45:53;;;;;;;;;;;;;;;1.56;100.00;103385.03;5032934;28;20475;-90
2022/01/28 08:48:26;;;;;;;;;;;;;;;1.64;100.00;103385.44;5033200;28;19963;-91
2022/01/28 08:50:52;;;;;;;;;;;;;;;1.71;100.00;103385.91;5032916;28;19948;-90
2022/01/28 08:53:17;;;;;;;;;;;;;;;1.79;100.00;103383.63;5032096;28;19909;-90
2022/01/28 08:55:48;;;;;;;;;;;;;;;1.87;100.00;103388.50;5033010;28;20261;-90
2022/01/28 08:58:13;;;;;;;;;;;;;;;1.94;100.00;103384.50;5032492;28;19963;-90
2022/01/28 09:00:45;;;;;;;;;;;;;;;2.00;100.00;103375.22;5038624;28;19921;-91
2022/01/28 09:03:15;;;;;;;;;;;;;;;2.06;100.00;103388.22;5036974;28;19912;-91
2022/01/28 09:05:48;;;;;;;;;;;;;;;2.13;100.00;103385.97;5052595;28;19912;-91
2022/01/28 09:08:14;;;;;;;;;;;;;;;2.17;100.00;103388.41;5036028;28;19928;-91
2022/01/28 09:10:45;;;;;;;;;;;;;;;2.25;100.00;103388.75;5035061;28;19912;-91
2022/01/28 09:13:24;;;;;;;;;;;;;;;2.31;100.00;103383.97;5053640;28;19915;-91
2022/01/28 09:15:51;;;;;;;;;;;;;;;2.37;100.00;103384.41;5035835;28;20291;-91
2022/01/28 09:18:17;;;;;;;;;;;;;;;2.46;100.00;103391.00;5052290;28;19959;-91
2022/01/28 09:20:42;;;;;;;;;;;;;;;2.53;100.00;103383.44;5035678;28;19956;-91
2022/01/28 09:23:09;;;;;;;;;;;;;;;2.56;100.00;103386.78;5035557;28;19955;-91
2022/01/28 09:25:37;;;;;;;;;;;;;;;2.63;100.00;103392.59;5035585;28;19909;-91
2022/01/28 09:28:03;;;;;;;;;;;;;;;2.68;100.00;103401.19;5052710;28;19912;-91
2022/01/28 09:30:29;;;;;;;;;;;;;;;2.72;100.00;103397.34;5019050;28;19916;-91
2022/01/28 09:32:57;;;;;;;;;;;;;;;2.79;100.00;103398.69;5019286;28;19913;-91
2022/01/28 09:35:45;;;;;;;;;;;;;;;2.87;100.00;103410.72;5035547;28;19919;-91
2022/01/28 09:38:13;;;;;;;;;;;;;;;2.96;100.00;103402.06;5035573;28;19908;-91
2022/01/28 09:40:38;;;;;;;;;;;;;;;3.04;100.00;103402.41;5035141;28;19916;-89
2022/01/28 09:43:06;;;;;;;;;;;;;;;3.10;100.00;103404.66;5052386;28;19944;-90
2022/01/28 09:45:37;;;;;;;;;;;;;;;3.17;100.00;103394.38;5034168;28;19962;-90
2022/01/28 09:48:05;;;;;;;;;;;;;;;3.25;100.00;103393.84;5017958;28;20329;-90
2022/01/28 09:50:32;;;;;;;;;;;;;;;3.32;100.00;103403.19;5034232;28;19913;-91
2022/01/28 09:52:58;;;;;;;;;;;;;;;3.40;100.00;103403.53;5052510;28;19939;-91
2022/01/28 09:55:24;;;;;;;;;;;;;;;3.48;100.00;103406.56;5018473;28;19920;-91
2022/01/28 09:57:54;;;;;;;;;;;;;;;3.56;100.00;103416.78;5035029;28;19912;-90
2022/01/28 10:00:22;;;;;;;;;;;;;;;3.65;100.00;103424.19;5034766;28;19909;-91
2022/01/28 10:02:51;;;;;;;;;;;;;;;3.75;100.00;103423.53;5052219;28;19920;-91
2022/01/28 10:05:25;;;;;;;;;;;;;;;3.83;100.00;103419.34;5052608;28;19909;-91
2022/01/28 10:08:06;;;;;;;;;;;;;;;3.89;100.00;103418.06;5034934;28;20432;-90
2022/01/28 10:10:45;;;;;;;;;;;;;;;3.98;100.00;103406.66;5034720;28;19912;-90
2022/01/28 10:13:14;;;;;;;;;;;;;;;4.07;100.00;103418.56;5036881;28;19915;-91
2022/01/28 10:15:58;;;;;;;;;;;;;;;4.14;100.00;103413.63;5034921;28;19909;-91
2022/01/28 10:18:45;;;;;;;;;;;;;;;4.21;100.00;103413.09;5034517;28;19912;-91
2022/01/28 10:21:16;;;;;;;;;;;;;;;4.30;100.00;103419.63;5034665;28;19909;-89
2022/01/28 10:24:11;;;;;;;;;;;;;;;4.36;100.00;103413.81;5037532;28;20288;-89
2022/01/28 10:26:37;;;;;;;;;;;;;;;4.47;100.00;103409.47;5025240;28;19909;-89
2022/01/28 10:29:04;;;;;;;;;;;;;;;4.54;100.00;103425.03;5039092;28;20326;-89
2022/01/28 10:31:40;;;;;;;;;;;;;;;4.63;100.00;103419.97;5038332;28;19951;-89
2022/01/28 10:34:10;;;;;;;;;;;;;;;4.69;100.00;103417.66;5038738;28;19935;-89
2022/01/28 10:36:35;;;;;;;;;;;;;;;4.77;100.00;103416.25;5037847;28;19909;-89
2022/01/28 10:39:11;;;;;;;;;;;;;;;4.87;100.00;103428.03;5037978;28;19953;-88
2022/01/28 10:41:37;;;;;;;;;;;;;;;4.96;100.00;103418.41;5038449;28;19909;-89
2022/01/28 10:44:02;;;;;;;;;;;;;;;5.03;100.00;103423.22;5054682;28;19919;-89
2022/01/28 10:46:34;;;;;;;;;;;;;;;5.11;100.00;103433.44;5037819;28;19909;-89
2022/01/28 10:49:03;;;;;;;;;;;;;;;5.21;100.00;103417.41;5022103;28;19913;-89
2022/01/28 10:51:42;;;;;;;;;;;;;;;5.29;100.00;103415.00;5037978;28;20300;-88
2022/01/28 10:54:11;;;;;;;;;;;;;;;5.37;100.00;103415.25;5037783;28;19908;-89
2022/01/28 10:56:53;;;;;;;;;;;;;;;5.47;100.00;103418.13;5038434;28;19915;-89
2022/01/28 10:59:25;;;;;;;;;;;;;;;5.55;100.00;103415.69;5038252;28;19915;-89
2022/01/28 11:01:51;;;;;;;;;;;;;;;5.66;100.00;103412.16;5034238;28;19917;-89
2022/01/28 11:04:17;;;;;;;;;;;;;;;5.75;100.00;103407.91;5034412;28;20365;-89
2022/01/28 11:06:43;;;;;;;;;;;;;;;5.78;100.00;103403.09;5034244;28;19917;-89
2022/01/28 11:09:09;;;;;;;;;;;;;;;5.87;100.00;103397.97;5034115;28;19932;-89
2022/01/28 11:11:35;;;;;;;;;;;;;;;5.96;100.00;103400.81;5033328;28;19960;-88
2022/01/28 11:14:01;;;;;;;;;;;;;;;6.09;100.00;103398.00;5033734;28;20439;-88
2022/01/28 11:16:26;;;;;;;;;;;;;;;6.22;100.00;103391.66;5034107;28;19909;-88
2022/01/28 11:18:54;;;;;;;;;;;;;;;6.34;99.77;103382.53;5035413;28;20003;-88
2022/01/28 11:21:27;;;;;;;;;;;;;;;6.45;100.00;103377.13;5034153;28;19915;-88
2022/01/28 11:24:08;;;;;;;;;;;;;;;6.59;100.00;103384.09;5036137;28;20051;-89
2022/01/28 11:26:42;;;;;;;;;;;;;;;6.72;100.00;103361.47;5033926;28;19916;-89
2022/01/28 11:29:17;;;;;;;;;;;;;;;7.10;100.00;103358.25;5034724;28;19916;-89
2022/01/28 11:31:44;;;;;;;;;;;;;;;8.71;100.00;103354.91;5034516;28;19988;-89
2022/01/28 11:34:39;;;;;;;;;;;;;;;11.22;95.84;103357.66;5040379;28;19917;-89
2022/01/28 11:37:14;;;;;;;;;;;;;;;13.84;78.07;103347.47;5034593;28;19984;-89
2022/01/28 11:39:42;;;;;;;;;;;;;;;15.63;82.94;103343.78;5034082;28;19909;-89
2022/01/28 11:42:13;;;;;;;;;;;;;;;17.38;84.07;103339.13;5033708;28;20365;-89
2022/01/28 11:44:50;;;;;;;;;;;;;;;18.26;71.63;103342.16;5033887;28;20255;-89
2022/01/28 11:47:23;;;;;;;;;;;;;;;18.28;54.52;103345.56;5032981;28;19909;-90
2022/01/28 11:49:51;;;;;;;;;;;;;;;19.14;65.93;103337.66;5033683;28;19920;-89
2022/01/28 11:52:20;;;;;;;;;;;;;;;20.43;74.75;103332.34;5034811;28;19991;-90
2022/01/28 11:54:45;;;;;;;;;;;;;;;22.05;60.58;103328.72;5033118;28;20380;-89
2022/01/28 11:57:12;;;;;;;;;;;;;;;22.36;54.73;103321.28;5034522;28;19909;-89
2022/01/28 11:59:40;;;;;;;;;;;;;;;21.54;61.53;103328.06;5033117;28;19909;-89
2022/01/28 12:02:10;;;;;;;;;;;;;;;22.11;53.31;103331.63;5048814;28;19974;-89
2022/01/28 12:04:35;;;;;;;;;;;;;;;22.74;46.55;103336.69;5035462;28;19909;-89
2022/01/28 12:07:15;;;;;;;;;;;;;;;23.43;51.77;103330.59;5035538;28;19935;-89
2022/01/28 12:09:55;;;;;;;;;;;;;;;23.78;50.96;103323.31;5036586;28;20475;-89
2022/01/28 12:12:24;;;;;;;;;;;;;;;23.45;43.93;103330.34;5036302;28;19972;-90
2022/01/28 12:14:49;;;;;;;;;;;;;;;22.25;48.33;103335.91;5036424;28;19908;-91
2022/01/28 12:17:30;;;;;;;;;;;;;;;19.85;46.78;103336.06;5053900;28;19908;-89
2022/01/28 12:20:24;;;;;;;;;;;;;;;17.39;47.22;103322.50;5035654;28;20364;-89
2022/01/28 12:23:08;;;;;;;;;;;;;;;15.33;49.01;103319.16;5035424;28;19909;-89
2022/01/28 12:25:36;;;;;;;;;;;;;;;13.90;49.08;103307.69;5035771;28;19951;-89
2022/01/28 12:28:11;;;;;;;;;;;;;;;13.53;52.73;103294.72;5035744;28;19992;-89
2022/01/28 12:30:37;;;;;;;;;;;;;;;14.88;52.26;103292.56;5019408;28;19917;-89
2022/01/28 12:33:03;;;;;;;;;;;;;;;16.43;52.83;103285.41;5035801;28;19916;-89
2022/01/28 12:35:29;;;;;;;;;;;;;;;17.66;52.32;103285.06;5019764;28;19934;-89
2022/01/28 12:38:02;;;;;;;;;;;;;;;17.80;48.29;103283.22;5018994;28;19917;-90
2022/01/28 12:40:35;;;;;;;;;;;;;;;18.00;58.42;103279.75;5036216;28;20434;-88
2022/01/28 12:43:13;;;;;;;;;;;;;;;19.10;57.12;103276.69;5054454;28;19915;-93
2022/01/28 12:46:04;;;;;;;;;;;;;;;18.61;51.80;103273.28;5020638;28;19923;-94
2022/01/28 12:48:31;;;;;;;;;;;;;;;19.52;50.40;103268.13;5035258;28;20034;-89
2022/01/28 12:50:57;;;;;;;;;;;;;;;20.36;46.81;103269.00;5035637;28;20014;-89
2022/01/28 12:53:30;;;;;;;;;;;;;;;21.30;46.27;103268.19;5018881;28;19923;-89
2022/01/28 12:55:56;;;;;;;;;;;;;;;21.80;41.09;103259.75;5034761;28;20035;-89
2022/01/28 12:58:42;;;;;;;;;;;;;;;21.43;42.50;103264.44;5034895;28;20022;-89
2022/01/28 13:01:11;;;;;;;;;;;;;;;21.86;39.23;103263.50;5004102;28;20424;-89
2022/01/28 13:03:53;;;;;;;;;;;;;;;21.70;39.77;103253.94;5034455;28;20292;-89
2022/01/28 13:06:39;;;;;;;;;;;;;;;23.36;50.36;103251.50;5034897;28;19912;-89
2022/01/28 13:09:16;;;;;;;;;;;;;;;25.52;47.04;103239.38;5034162;28;19916;-89
2022/01/28 13:11:46;;;;;;;;;;;;;;;24.95;43.43;103237.78;5034614;28;19931;-89
2022/01/28 13:14:12;;;;;;;;;;;;;;;23.73;47.92;103232.59;5034333;28;20320;-90
2022/01/28 13:16:39;;;;;;;;;;;;;;;22.29;47.50;103222.91;5019384;28;19916;-89
2022/01/28 13:19:06;;;;;;;;;;;;;;;20.78;48.68;103210.56;5034754;28;19909;-89
2022/01/28 13:21:33;;;;;;;;;;;;;;;19.34;44.06;103213.75;5035135;28;19908;-90
2022/01/28 13:24:13;;;;;;;;;;;;;;;17.66;43.95;103210.94;5035557;28;19909;-90
2022/01/28 13:26:51;;;;;;;;;;;;;;;16.89;48.91;103201.91;5035412;28;19915;-90
2022/01/28 13:29:17;;;;;;;;;;;;;;;17.06;43.52;103207.06;5035577;28;20365;-91
2022/01/28 13:31:43;;;;;;;;;;;;;;;16.14;48.17;103209.66;5034764;28;19917;-91
2022/01/28 13:34:10;;;;;;;;;;;;;;;15.01;47.66;103209.06;5035550;28;20047;-91
2022/01/28 13:36:44;;;;;;;;;;;;;;;14.65;54.92;103220.72;5019020;28;19923;-91
2022/01/28 13:39:20;;;;;;;;;;;;;;;14.87;49.87;103206.13;5035309;28;19912;-89
2022/01/28 13:41:50;;;;;;;;;;;;;;;14.78;51.33;103200.94;5035004;28;19916;-89
2022/01/28 13:44:21;;;;;;;;;;;;;;;15.95;52.72;103192.81;5034614;28;19920;-88
2022/01/28 13:47:00;;;;;;;;;;;;;;;18.12;44.83;103195.66;5034588;28;20365;-88
2022/01/28 13:49:30;;;;;;;;;;;;;;;18.77;43.49;103187.63;5033895;28;19913;-88
2022/01/28 13:52:05;;;;;;;;;;;;;;;19.64;42.69;103186.53;5034461;28;20007;-88
2022/01/28 13:54:31;;;;;;;;;;;;;;;20.03;41.09;103192.88;5052342;28;19935;-88
2022/01/28 13:57:04;;;;;;;;;;;;;;;20.51;43.06;103185.94;5034515;28;20326;-88
2022/01/28 13:59:30;;;;;;;;;;;;;;;21.95;41.27;103186.63;5056702;28;19912;-88
2022/01/28 14:01:59;;;;;;;;;;;;;;;22.38;37.17;103197.47;5038036;28;19946;-89
2022/01/28 14:04:33;;;;;;;;;;;;;;;22.25;37.26;103200.41;5038387;28;19912;-88
2022/01/28 14:07:07;;;;;;;;;;;;;;;21.51;37.77;103200.63;5037778;28;19920;-89
2022/01/28 14:09:56;;;;;;;;;;;;;;;20.78;37.75;103205.88;5056071;28;19921;-89
2022/01/28 14:12:38;;;;;;;;;;;;;;;20.63;38.76;103188.81;5038715;28;19967;-89
2022/01/28 14:15:15;;;;;;;;;;;;;;;20.81;35.75;103190.78;5038090;28;20273;-89